Аэропорт
Международный аэропорт Санья Феникс (ZJSY)

 ZJSY / SYX

China
CN-46
Санья
 18.30290, 109.41200  / 92 ft

 ZJSY 201600Z 10003MPS 080V160 CAVOK 22/17 Q1022 NOSIG
 TAF ZJSY 200901Z 2012/2112 09005MPS 9999 FEW020 TX28/2106Z TN21/2021Z

2020 © VATRUS division (Privacy Policy)